Decoded Metar for DAUH (HASSI-MESSAOUD in ALGERIA) (IATA:HME) | Meteo·Mobile Aviation Weather
aviador You're here:

DAUH Decoded Metar

HASSI-MESSAOUD in ALGERIA
Report Time2018-09-18 22:30:00
UTC Time2018-09-18 22:59:13
Flight Rules vfr VFR
Wind040° at 07 kt
W.Decomp.*RWY 36: 5.4 kt HW 4.5 kt RCW
W.Rank040° ranks 3
Current wind is below 040° avg. (8.5)
Visibility9999 m
Phenomena:N/A
Clouds:N/A
Expected CloudBase > 7,600 ft AGL from Temp-Dew spread
CeilingNone
Temp31°C (ISA +17)
Dew Point12°C (31% RH)
Heat Index29.8°C
AAT29.1°C
QNH1017 hPa
Density Alt2,457 ft
Elevation466 ft
Report Wrong Elevation
Raw Report
DAUH 182230Z 04007KT CAVOK 31/12 Q1017=

Extra information for DAUH:More info

Metar Taf Metar & Taf Last 4 Metars F.Rules Stats Wind Profile Meteogram Temp Stats Airport Information Weather charts Add Link Nearby VenuesMetar ALERT Operation Metar Decoded Social comments